sensor_id;sensor_type;location;lat;lon;timestamp;pressure;altitude;pressure_sealevel;temperature;humidity
55263;BME280;41125;48.752;9.168;2023-06-26T00:00:02;96795.59;;;21.21;44.22
55263;BME280;41125;48.752;9.168;2023-06-26T00:00:36;96801.91;;;21.21;44.57
55263;BME280;41125;48.752;9.168;2023-06-26T00:01:07;96798.00;;;21.22;44.50
55263;BME280;41125;48.752;9.168;2023-06-26T00:01:39;96795.59;;;21.21;44.88
55263;BME280;41125;48.752;9.168;2023-06-26T00:02:10;96795.59;;;21.21;44.52
55263;BME280;41125;48.752;9.168;2023-06-26T00:02:45;96796.72;;;21.20;44.31
55263;BME280;41125;48.752;9.168;2023-06-26T00:03:19;96794.78;;;21.20;44.52
55263;BME280;41125;48.752;9.168;2023-06-26T00:03:50;96801.03;;;21.17;44.92
55263;BME280;41125;48.752;9.168;2023-06-26T00:04:21;96802.53;;;21.15;44.98
55263;BME280;41125;48.752;9.168;2023-06-26T00:04:52;96800.97;;;21.14;44.67
55263;BME280;41125;48.752;9.168;2023-06-26T00:05:24;96803.72;;;21.14;44.63
55263;BME280;41125;48.752;9.168;2023-06-26T00:05:55;96794.22;;;21.11;44.68
55263;BME280;41125;48.752;9.168;2023-06-26T00:06:31;96799.31;;;21.09;44.69
55263;BME280;41125;48.752;9.168;2023-06-26T00:07:03;96792.19;;;21.08;44.71
55263;BME280;41125;48.752;9.168;2023-06-26T00:07:38;96798.50;;;21.08;44.71
55263;BME280;41125;48.752;9.168;2023-06-26T00:08:09;96807.13;;;21.07;44.82
55263;BME280;41125;48.752;9.168;2023-06-26T00:08:41;96804.03;;;21.08;44.89
55263;BME280;41125;48.752;9.168;2023-06-26T00:09:16;96797.69;;;21.08;44.98
55263;BME280;41125;48.752;9.168;2023-06-26T00:09:48;96799.31;;;21.09;44.41
55263;BME280;41125;48.752;9.168;2023-06-26T00:10:19;96798.50;;;21.08;44.70
55263;BME280;41125;48.752;9.168;2023-06-26T00:10:51;96798.50;;;21.08;44.65
55263;BME280;41125;48.752;9.168;2023-06-26T00:11:22;96792.19;;;21.08;44.68
55263;BME280;41125;48.752;9.168;2023-06-26T00:11:54;96804.81;;;21.09;44.87
55263;BME280;41125;48.752;9.168;2023-06-26T00:12:25;96800.47;;;21.08;44.89
55263;BME280;41125;48.752;9.168;2023-06-26T00:12:56;96800.47;;;21.08;44.89
55263;BME280;41125;48.752;9.168;2023-06-26T00:13:27;96800.81;;;21.06;45.08
55263;BME280;41125;48.752;9.168;2023-06-26T00:14:02;96801.63;;;21.07;44.75
55263;BME280;41125;48.752;9.168;2023-06-26T00:14:33;96798.44;;;21.05;44.75
55263;BME280;41125;48.752;9.168;2023-06-26T00:15:05;96800.81;;;21.06;44.75
55263;BME280;41125;48.752;9.168;2023-06-26T00:15:38;96805.97;;;21.08;45.17
55263;BME280;41125;48.752;9.168;2023-06-26T00:16:10;96802.41;;;21.07;44.81
55263;BME280;41125;48.752;9.168;2023-06-26T00:16:41;96799.31;;;21.09;44.52
55263;BME280;41125;48.752;9.168;2023-06-26T00:17:13;96809.19;;;21.10;44.96
55263;BME280;41125;48.752;9.168;2023-06-26T00:17:44;96809.91;;;21.07;44.71
55263;BME280;41125;48.752;9.168;2023-06-26T00:18:16;96802.34;;;21.04;44.59
55263;BME280;41125;48.752;9.168;2023-06-26T00:18:49;96804.66;;;21.02;44.97
55263;BME280;41125;48.752;9.168;2023-06-26T00:19:20;96799.87;;;20.99;44.85
55263;BME280;41125;48.752;9.168;2023-06-26T00:19:52;96800.66;;;20.99;44.63
55263;BME280;41125;48.752;9.168;2023-06-26T00:20:23;96808.16;;;20.99;45.04
55263;BME280;41125;48.752;9.168;2023-06-26T00:20:56;96803.78;;;20.98;44.91
55263;BME280;41125;48.752;9.168;2023-06-26T00:21:27;96809.31;;;20.98;45.26
55263;BME280;41125;48.752;9.168;2023-06-26T00:21:59;96801.75;;;20.95;45.00
55263;BME280;41125;48.752;9.168;2023-06-26T00:22:31;96801.41;;;20.96;45.12
55263;BME280;41125;48.752;9.168;2023-06-26T00:23:02;96803.34;;;20.96;45.01
55263;BME280;41125;48.752;9.168;2023-06-26T00:23:38;96804.16;;;20.96;45.00
55263;BME280;41125;48.752;9.168;2023-06-26T00:24:09;96806.91;;;20.96;45.12
55263;BME280;41125;48.752;9.168;2023-06-26T00:24:41;96800.59;;;20.96;45.20
55263;BME280;41125;48.752;9.168;2023-06-26T00:25:12;96804.50;;;20.95;45.15
55263;BME280;41125;48.752;9.168;2023-06-26T00:25:44;96804.50;;;20.95;45.14
55263;BME280;41125;48.752;9.168;2023-06-26T00:26:15;96805.75;;;20.97;45.12
55263;BME280;41125;48.752;9.168;2023-06-26T00:26:47;96806.56;;;20.98;45.02
55263;BME280;41125;48.752;9.168;2023-06-26T00:27:18;96800.59;;;20.96;45.02
55263;BME280;41125;48.752;9.168;2023-06-26T00:27:49;96797.91;;;20.99;45.41
55263;BME280;41125;48.752;9.168;2023-06-26T00:28:21;96803.06;;;21.01;44.91
55263;BME280;41125;48.752;9.168;2023-06-26T00:28:52;96804.22;;;21.00;44.80
55263;BME280;41125;48.752;9.168;2023-06-26T00:29:24;96803.88;;;21.01;44.97
55263;BME280;41125;48.752;9.168;2023-06-26T00:29:55;96805.81;;;21.01;44.93
55263;BME280;41125;48.752;9.168;2023-06-26T00:30:27;96803.06;;;21.01;45.20
55263;BME280;41125;48.752;9.168;2023-06-26T00:30:58;96799.87;;;20.99;44.97
55263;BME280;41125;48.752;9.168;2023-06-26T00:31:29;96801.03;;;20.98;45.08
55263;BME280;41125;48.752;9.168;2023-06-26T00:32:00;96799.87;;;20.99;45.03
55263;BME280;41125;48.752;9.168;2023-06-26T00:32:33;96799.87;;;20.99;44.96
55263;BME280;41125;48.752;9.168;2023-06-26T00:33:05;96805.38;;;20.99;45.14
55263;BME280;41125;48.752;9.168;2023-06-26T00:33:39;96800.66;;;20.99;45.35
55263;BME280;41125;48.752;9.168;2023-06-26T00:34:11;96799.87;;;20.99;45.12
55263;BME280;41125;48.752;9.168;2023-06-26T00:34:43;96801.84;;;20.98;44.76
55263;BME280;41125;48.752;9.168;2023-06-26T00:35:15;96801.03;;;20.98;45.05
55263;BME280;41125;48.752;9.168;2023-06-26T00:35:46;96804.50;;;20.95;45.48
55263;BME280;41125;48.752;9.168;2023-06-26T00:36:18;96798.19;;;20.94;44.93
55263;BME280;41125;48.752;9.168;2023-06-26T00:36:49;96805.66;;;20.94;45.17
55263;BME280;41125;48.752;9.168;2023-06-26T00:37:23;96802.13;;;20.93;45.43
55263;BME280;41125;48.752;9.168;2023-06-26T00:37:54;96799.72;;;20.92;45.16
55263;BME280;41125;48.752;9.168;2023-06-26T00:38:27;96795.38;;;20.91;45.23
55263;BME280;41125;48.752;9.168;2023-06-26T00:38:59;96797.41;;;20.94;45.16
55263;BME280;41125;48.752;9.168;2023-06-26T00:39:30;96801.75;;;20.95;44.75
55263;BME280;41125;48.752;9.168;2023-06-26T00:40:02;96796.69;;;20.97;44.98
55263;BME280;41125;48.752;9.168;2023-06-26T00:40:38;96803.00;;;20.97;45.23
55263;BME280;41125;48.752;9.168;2023-06-26T00:41:09;96796.75;;;21.00;45.08
55263;BME280;41125;48.752;9.168;2023-06-26T00:41:43;96796.75;;;21.00;45.24
55263;BME280;41125;48.752;9.168;2023-06-26T00:42:15;96799.16;;;21.02;45.26
55263;BME280;41125;48.752;9.168;2023-06-26T00:42:49;96796.81;;;21.04;44.63
55263;BME280;41125;48.752;9.168;2023-06-26T00:43:21;96802.41;;;21.07;45.09
55263;BME280;41125;48.752;9.168;2023-06-26T00:43:53;96799.31;;;21.09;44.79
55263;BME280;41125;48.752;9.168;2023-06-26T00:44:26;96789.88;;;21.10;45.05
55263;BME280;41125;48.752;9.168;2023-06-26T00:44:57;96800.19;;;21.13;44.66
55263;BME280;41125;48.752;9.168;2023-06-26T00:45:28;96798.97;;;21.14;44.84
55263;BME280;41125;48.752;9.168;2023-06-26T00:46:01;96800.19;;;21.13;44.58
55263;BME280;41125;48.752;9.168;2023-06-26T00:46:33;96793.06;;;21.12;44.77
55263;BME280;41125;48.752;9.168;2023-06-26T00:47:06;96793.09;;;21.16;45.05
55263;BME280;41125;48.752;9.168;2023-06-26T00:47:37;96798.63;;;21.16;44.76
55263;BME280;41125;48.752;9.168;2023-06-26T00:48:10;96798.69;;;21.19;44.67
55263;BME280;41125;48.752;9.168;2023-06-26T00:48:48;96795.94;;;21.19;44.65
55263;BME280;41125;48.752;9.168;2023-06-26T00:49:20;96793.97;;;21.20;44.77
55263;BME280;41125;48.752;9.168;2023-06-26T00:49:51;96793.19;;;21.19;44.86
55263;BME280;41125;48.752;9.168;2023-06-26T00:50:24;96794.06;;;21.23;44.59
55263;BME280;41125;48.752;9.168;2023-06-26T00:50:55;96798.44;;;21.24;44.62
55263;BME280;41125;48.752;9.168;2023-06-26T00:51:28;96794.50;;;21.25;44.50
55263;BME280;41125;48.752;9.168;2023-06-26T00:52:02;96792.47;;;21.22;44.26
55263;BME280;41125;48.752;9.168;2023-06-26T00:52:34;96792.00;;;21.20;44.91
55263;BME280;41125;48.752;9.168;2023-06-26T00:53:10;96789.97;;;21.17;44.66
55263;BME280;41125;48.752;9.168;2023-06-26T00:53:43;96791.16;;;21.16;45.11
55263;BME280;41125;48.752;9.168;2023-06-26T00:54:14;96793.06;;;21.12;44.70
55263;BME280;41125;48.752;9.168;2023-06-26T00:54:51;96795.38;;;21.10;44.65
55263;BME280;41125;48.752;9.168;2023-06-26T00:55:22;96792.19;;;21.08;45.02
55263;BME280;41125;48.752;9.168;2023-06-26T00:55:54;96794.50;;;21.06;44.88
55263;BME280;41125;48.752;9.168;2023-06-26T00:56:26;96794.88;;;21.04;44.72
55263;BME280;41125;48.752;9.168;2023-06-26T00:56:58;96795.22;;;21.03;44.94
55263;BME280;41125;48.752;9.168;2023-06-26T00:57:31;96799.16;;;21.02;45.06
55263;BME280;41125;48.752;9.168;2023-06-26T00:58:03;96791.22;;;21.00;44.98
55263;BME280;41125;48.752;9.168;2023-06-26T00:58:35;96792.03;;;21.01;45.34
55263;BME280;41125;48.752;9.168;2023-06-26T00:59:06;96795.59;;;21.01;45.08
55263;BME280;41125;48.752;9.168;2023-06-26T00:59:38;96788.12;;;21.02;45.38
55263;BME280;41125;48.752;9.168;2023-06-26T01:00:10;96792.03;;;21.01;45.33
55263;BME280;41125;48.752;9.168;2023-06-26T01:00:41;96795.94;;;21.00;44.99
55263;BME280;41125;48.752;9.168;2023-06-26T01:01:16;96788.84;;;20.99;44.99
55263;BME280;41125;48.752;9.168;2023-06-26T01:01:48;96795.16;;;20.99;45.24
55263;BME280;41125;48.752;9.168;2023-06-26T01:02:19;96788.84;;;20.99;45.20
55263;BME280;41125;48.752;9.168;2023-06-26T01:02:51;96793.56;;;20.98;45.39
55263;BME280;41125;48.752;9.168;2023-06-26T01:03:24;96794.78;;;21.01;44.86
55263;BME280;41125;48.752;9.168;2023-06-26T01:03:56;96789.63;;;20.99;45.16
55263;BME280;41125;48.752;9.168;2023-06-26T01:04:28;96792.03;;;21.01;45.00
55263;BME280;41125;48.752;9.168;2023-06-26T01:05:04;96795.94;;;21.00;45.05
55263;BME280;41125;48.752;9.168;2023-06-26T01:05:37;96784.13;;;20.99;44.92
55263;BME280;41125;48.752;9.168;2023-06-26T01:06:11;96788.12;;;21.02;45.00
55263;BME280;41125;48.752;9.168;2023-06-26T01:06:46;96789.28;;;21.01;44.91
55263;BME280;41125;48.752;9.168;2023-06-26T01:07:24;96788.47;;;21.00;45.14
55263;BME280;41125;48.752;9.168;2023-06-26T01:07:57;96789.63;;;20.99;45.34
55263;BME280;41125;48.752;9.168;2023-06-26T01:08:29;96783.31;;;20.99;45.01
55263;BME280;41125;48.752;9.168;2023-06-26T01:09:02;96790.06;;;21.01;45.00
55263;BME280;41125;48.752;9.168;2023-06-26T01:09:34;96784.56;;;21.01;44.74
55263;BME280;41125;48.752;9.168;2023-06-26T01:10:07;96789.28;;;21.01;44.91
55263;BME280;41125;48.752;9.168;2023-06-26T01:10:39;96786.50;;;21.01;44.96
55263;BME280;41125;48.752;9.168;2023-06-26T01:11:11;96791.22;;;21.00;44.88
55263;BME280;41125;48.752;9.168;2023-06-26T01:11:42;96781.00;;;21.01;44.99
55263;BME280;41125;48.752;9.168;2023-06-26T01:12:14;96789.63;;;20.99;44.99
55263;BME280;41125;48.752;9.168;2023-06-26T01:12:46;96788.91;;;21.02;44.95
55263;BME280;41125;48.752;9.168;2023-06-26T01:13:18;96786.50;;;21.01;44.86
55263;BME280;41125;48.752;9.168;2023-06-26T01:13:51;96792.03;;;21.01;45.05
55263;BME280;41125;48.752;9.168;2023-06-26T01:14:23;96786.50;;;21.01;44.58
55263;BME280;41125;48.752;9.168;2023-06-26T01:14:54;96786.09;;;20.99;44.76
55263;BME280;41125;48.752;9.168;2023-06-26T01:15:26;96782.53;;;20.98;44.58
55263;BME280;41125;48.752;9.168;2023-06-26T01:15:59;96788.84;;;20.99;44.61
55263;BME280;41125;48.752;9.168;2023-06-26T01:16:31;96781.72;;;20.98;44.70
55263;BME280;41125;48.752;9.168;2023-06-26T01:17:04;96783.31;;;20.99;44.90
55263;BME280;41125;48.752;9.168;2023-06-26T01:17:37;96787.31;;;21.01;44.66
55263;BME280;41125;48.752;9.168;2023-06-26T01:18:09;96787.31;;;21.01;44.87
55263;BME280;41125;48.752;9.168;2023-06-26T01:18:40;96782.59;;;21.02;44.64
55263;BME280;41125;48.752;9.168;2023-06-26T01:19:23;96782.59;;;21.02;44.88
55263;BME280;41125;48.752;9.168;2023-06-26T01:19:59;96783.75;;;21.01;44.63
55263;BME280;41125;48.752;9.168;2023-06-26T01:20:38;96781.72;;;20.98;45.01
55263;BME280;41125;48.752;9.168;2023-06-26T01:21:13;96780.12;;;20.97;44.91
55263;BME280;41125;48.752;9.168;2023-06-26T01:21:46;96784.84;;;20.96;44.95
55263;BME280;41125;48.752;9.168;2023-06-26T01:25:23;96775.78;;;20.96;44.91
55263;BME280;41125;48.752;9.168;2023-06-26T01:26:32;96779.25;;;20.93;45.25
55263;BME280;41125;48.752;9.168;2023-06-26T01:27:09;96780.78;;;20.90;44.67
55263;BME280;41125;48.752;9.168;2023-06-26T01:27:43;96781.56;;;20.91;45.33
55263;BME280;41125;48.752;9.168;2023-06-26T01:28:15;96787.09;;;20.91;45.13
55263;BME280;41125;48.752;9.168;2023-06-26T01:28:50;96778.38;;;20.89;45.06
55263;BME280;41125;48.752;9.168;2023-06-26T01:29:23;96780.78;;;20.90;44.96
55263;BME280;41125;48.752;9.168;2023-06-26T01:29:56;96776.78;;;20.88;45.27
55263;BME280;41125;48.752;9.168;2023-06-26T01:30:28;96778.38;;;20.89;45.00
55263;BME280;41125;48.752;9.168;2023-06-26T01:31:00;96777.22;;;20.90;45.30
55263;BME280;41125;48.752;9.168;2023-06-26T01:31:34;96777.22;;;20.90;45.10
55263;BME280;41125;48.752;9.168;2023-06-26T01:32:06;96773.66;;;20.89;44.88
55263;BME280;41125;48.752;9.168;2023-06-26T01:32:39;96775.19;;;20.87;44.80
55263;BME280;41125;48.752;9.168;2023-06-26T01:33:12;96777.94;;;20.87;45.17
55263;BME280;41125;48.752;9.168;2023-06-26T01:33:45;96775.09;;;20.83;45.25
55263;BME280;41125;48.752;9.168;2023-06-26T01:34:18;96779.03;;;20.82;45.29
55263;BME280;41125;48.752;9.168;2023-06-26T01:34:49;96772.25;;;20.80;45.23
55263;BME280;41125;48.752;9.168;2023-06-26T01:35:21;96780.53;;;20.80;45.39
55263;BME280;41125;48.752;9.168;2023-06-26T01:35:53;96775.03;;;20.80;45.38
55263;BME280;41125;48.752;9.168;2023-06-26T01:36:26;96771.84;;;20.78;44.98
55263;BME280;41125;48.752;9.168;2023-06-26T01:36:57;96775.03;;;20.80;45.38
55263;BME280;41125;48.752;9.168;2023-06-26T01:37:28;96779.03;;;20.82;45.36
55263;BME280;41125;48.752;9.168;2023-06-26T01:38:31;96775.47;;;20.82;45.06
55263;BME280;41125;48.752;9.168;2023-06-26T01:39:02;96772.69;;;20.82;45.21
55263;BME280;41125;48.752;9.168;2023-06-26T01:39:34;96772.25;;;20.80;45.20
55263;BME280;41125;48.752;9.168;2023-06-26T01:40:06;96765.53;;;20.77;45.29
55263;BME280;41125;48.752;9.168;2023-06-26T01:40:38;96771.84;;;20.78;45.39
55263;BME280;41125;48.752;9.168;2023-06-26T01:41:10;96769.50;;;20.80;45.58
55263;BME280;41125;48.752;9.168;2023-06-26T01:41:41;96765.59;;;20.81;45.29
55263;BME280;41125;48.752;9.168;2023-06-26T01:42:13;96771.50;;;20.79;45.80
55263;BME280;41125;48.752;9.168;2023-06-26T01:42:44;96778.16;;;20.78;45.40
55263;BME280;41125;48.752;9.168;2023-06-26T01:43:24;96760.81;;;20.78;45.67
55263;BME280;41125;48.752;9.168;2023-06-26T01:44:28;96769.50;;;20.80;45.39
55263;BME280;41125;48.752;9.168;2023-06-26T01:45:14;96762.44;;;20.79;45.48
55263;BME280;41125;48.752;9.168;2023-06-26T01:45:48;96772.25;;;20.80;45.68
55263;BME280;41125;48.752;9.168;2023-06-26T01:46:42;96771.09;;;20.81;45.58
55263;BME280;41125;48.752;9.168;2023-06-26T01:47:22;96768.31;;;20.77;45.82
55263;BME280;41125;48.752;9.168;2023-06-26T01:47:58;96763.16;;;20.76;45.50
55263;BME280;41125;48.752;9.168;2023-06-26T01:50:29;96768.50;;;20.68;46.03
55263;BME280;41125;48.752;9.168;2023-06-26T01:51:02;96768.94;;;20.70;45.94
55263;BME280;41125;48.752;9.168;2023-06-26T01:51:38;96770.09;;;20.69;45.83
55263;BME280;41125;48.752;9.168;2023-06-26T01:52:20;96775.53;;;20.66;46.18
55263;BME280;41125;48.752;9.168;2023-06-26T01:53:17;96773.94;;;20.65;46.30
55263;BME280;41125;48.752;9.168;2023-06-26T01:53:53;96770.81;;;20.66;46.13
55263;BME280;41125;48.752;9.168;2023-06-26T01:54:30;96768.44;;;20.65;45.95
55263;BME280;41125;48.752;9.168;2023-06-26T01:55:21;96766.47;;;20.65;46.18
55263;BME280;41125;48.752;9.168;2023-06-26T01:56:03;96760.50;;;20.63;46.10
55263;BME280;41125;48.752;9.168;2023-06-26T01:56:38;96768.34;;;20.61;46.16
55263;BME280;41125;48.752;9.168;2023-06-26T01:57:11;96761.22;;;20.60;46.12
55263;BME280;41125;48.752;9.168;2023-06-26T01:57:46;96762.37;;;20.59;46.01
55263;BME280;41125;48.752;9.168;2023-06-26T01:58:20;96762.75;;;20.58;46.60
55263;BME280;41125;48.752;9.168;2023-06-26T01:58:54;96760.72;;;20.55;46.62
55263;BME280;41125;48.752;9.168;2023-06-26T01:59:28;96765.06;;;20.56;46.43
55263;BME280;41125;48.752;9.168;2023-06-26T02:00:03;96764.28;;;20.55;46.46
55263;BME280;41125;48.752;9.168;2023-06-26T02:00:37;96764.28;;;20.55;46.07
55263;BME280;41125;48.752;9.168;2023-06-26T02:01:09;96764.28;;;20.55;46.55
55263;BME280;41125;48.752;9.168;2023-06-26T02:01:41;96761.87;;;20.54;46.41
55263;BME280;41125;48.752;9.168;2023-06-26T02:02:12;96767.38;;;20.54;46.52
55263;BME280;41125;48.752;9.168;2023-06-26T02:02:44;96765.00;;;20.52;46.14
55263;BME280;41125;48.752;9.168;2023-06-26T02:03:16;96761.78;;;20.50;46.60
55263;BME280;41125;48.752;9.168;2023-06-26T02:03:48;96761.34;;;20.48;46.21
55263;BME280;41125;48.752;9.168;2023-06-26T02:04:19;96766.50;;;20.50;46.35
55263;BME280;41125;48.752;9.168;2023-06-26T02:04:51;96770.41;;;20.49;46.59
55263;BME280;41125;48.752;9.168;2023-06-26T02:05:23;96762.50;;;20.47;46.65
55263;BME280;41125;48.752;9.168;2023-06-26T02:05:54;96768.38;;;20.46;47.37
55263;BME280;41125;48.752;9.168;2023-06-26T02:06:26;96767.16;;;20.43;47.54
55263;BME280;41125;48.752;9.168;2023-06-26T02:06:57;96767.16;;;20.43;47.38
55263;BME280;41125;48.752;9.168;2023-06-26T02:07:28;96768.75;;;20.44;46.88
55263;BME280;41125;48.752;9.168;2023-06-26T02:08:00;96771.94;;;20.46;46.86
55263;BME280;41125;48.752;9.168;2023-06-26T02:08:37;96766.00;;;20.44;46.87
55263;BME280;41125;48.752;9.168;2023-06-26T02:09:08;96767.16;;;20.43;46.81
55263;BME280;41125;48.752;9.168;2023-06-26T02:09:40;96771.09;;;20.42;47.19
55263;BME280;41125;48.752;9.168;2023-06-26T02:10:11;96765.94;;;20.40;46.74
55263;BME280;41125;48.752;9.168;2023-06-26T02:10:42;96762.37;;;20.40;46.83
55263;BME280;41125;48.752;9.168;2023-06-26T02:11:13;96762.37;;;20.40;46.96
55263;BME280;41125;48.752;9.168;2023-06-26T02:11:45;96768.38;;;20.46;47.31
55263;BME280;41125;48.752;9.168;2023-06-26T02:12:17;96762.88;;;20.46;46.89
55263;BME280;41125;48.752;9.168;2023-06-26T02:12:48;96769.53;;;20.45;46.99
55263;BME280;41125;48.752;9.168;2023-06-26T02:13:23;96771.09;;;20.42;46.81
55263;BME280;41125;48.752;9.168;2023-06-26T02:13:54;96771.09;;;20.42;47.32
55263;BME280;41125;48.752;9.168;2023-06-26T02:14:27;96763.16;;;20.40;46.97
55263;BME280;41125;48.752;9.168;2023-06-26T02:14:58;96780.50;;;20.41;47.12
55263;BME280;41125;48.752;9.168;2023-06-26T02:15:30;96767.88;;;20.40;46.93
55263;BME280;41125;48.752;9.168;2023-06-26T02:16:01;96774.56;;;20.39;46.67
55263;BME280;41125;48.752;9.168;2023-06-26T02:16:32;96775.72;;;20.38;47.06
55263;BME280;41125;48.752;9.168;2023-06-26T02:17:04;96774.06;;;20.37;47.16
55263;BME280;41125;48.752;9.168;2023-06-26T02:17:36;96774.91;;;20.37;47.35
55263;BME280;41125;48.752;9.168;2023-06-26T02:18:08;96761.47;;;20.36;47.43
55263;BME280;41125;48.752;9.168;2023-06-26T02:18:39;96773.62;;;20.35;47.15
55263;BME280;41125;48.752;9.168;2023-06-26T02:19:10;96768.13;;;20.35;47.29
55263;BME280;41125;48.752;9.168;2023-06-26T02:19:41;96768.50;;;20.33;47.25
55263;BME280;41125;48.752;9.168;2023-06-26T02:20:18;96770.88;;;20.35;47.29
55263;BME280;41125;48.752;9.168;2023-06-26T02:20:49;96770.88;;;20.35;47.31
55263;BME280;41125;48.752;9.168;2023-06-26T02:21:20;96772.03;;;20.34;47.63
55263;BME280;41125;48.752;9.168;2023-06-26T02:21:55;96777.09;;;20.32;47.90
55263;BME280;41125;48.752;9.168;2023-06-26T02:22:26;96778.63;;;20.29;48.51
55263;BME280;41125;48.752;9.168;2023-06-26T02:22:59;96774.28;;;20.28;47.89
55263;BME280;41125;48.752;9.168;2023-06-26T02:23:30;96767.50;;;20.26;48.06
55263;BME280;41125;48.752;9.168;2023-06-26T02:24:02;96765.47;;;20.23;48.12
55263;BME280;41125;48.752;9.168;2023-06-26T02:24:33;96774.19;;;20.25;47.79
55263;BME280;41125;48.752;9.168;2023-06-26T02:25:06;96769.03;;;20.23;48.03
55263;BME280;41125;48.752;9.168;2023-06-26T02:25:37;96779.25;;;20.23;47.78
55263;BME280;41125;48.752;9.168;2023-06-26T02:26:09;96773.75;;;20.23;47.98
55263;BME280;41125;48.752;9.168;2023-06-26T02:26:40;96771.00;;;20.23;47.80
55263;BME280;41125;48.752;9.168;2023-06-26T02:27:11;96774.91;;;20.22;47.81
55263;BME280;41125;48.752;9.168;2023-06-26T02:27:43;96772.13;;;20.22;47.78
55263;BME280;41125;48.752;9.168;2023-06-26T02:28:14;96776.84;;;20.21;48.16
55263;BME280;41125;48.752;9.168;2023-06-26T02:28:45;96775.25;;;20.20;48.24
55263;BME280;41125;48.752;9.168;2023-06-26T02:29:16;96777.22;;;20.20;48.09
55263;BME280;41125;48.752;9.168;2023-06-26T02:29:48;96776.41;;;20.19;48.52
55263;BME280;41125;48.752;9.168;2023-06-26T02:30:20;96781.91;;;20.19;48.31
55263;BME280;41125;48.752;9.168;2023-06-26T02:30:51;96776.75;;;20.18;48.20
55263;BME280;41125;48.752;9.168;2023-06-26T02:31:22;96779.16;;;20.19;48.09
55263;BME280;41125;48.752;9.168;2023-06-26T02:31:57;96775.59;;;20.19;48.38
55263;BME280;41125;48.752;9.168;2023-06-26T02:32:28;96775.97;;;20.17;48.28
55263;BME280;41125;48.752;9.168;2023-06-26T02:32:59;96776.75;;;20.18;48.64
55263;BME280;41125;48.752;9.168;2023-06-26T02:33:31;96778.28;;;20.15;49.04
55263;BME280;41125;48.752;9.168;2023-06-26T02:34:03;96777.47;;;20.15;48.78
55263;BME280;41125;48.752;9.168;2023-06-26T02:34:36;96776.69;;;20.14;48.85
55263;BME280;41125;48.752;9.168;2023-06-26T02:35:08;96775.88;;;20.14;48.69
55263;BME280;41125;48.752;9.168;2023-06-26T02:35:39;96768.78;;;20.13;48.48
55263;BME280;41125;48.752;9.168;2023-06-26T02:36:10;96774.28;;;20.13;48.59
55263;BME280;41125;48.752;9.168;2023-06-26T02:36:41;96780.59;;;20.13;48.70
55263;BME280;41125;48.752;9.168;2023-06-26T02:37:13;96778.19;;;20.12;48.39
55263;BME280;41125;48.752;9.168;2023-06-26T02:37:44;96776.22;;;20.12;48.28
55263;BME280;41125;48.752;9.168;2023-06-26T02:38:19;96782.91;;;20.11;49.33
55263;BME280;41125;48.752;9.168;2023-06-26T02:38:51;96777.37;;;20.11;49.42
55263;BME280;41125;48.752;9.168;2023-06-26T02:39:22;96780.53;;;20.10;48.82
55263;BME280;41125;48.752;9.168;2023-06-26T02:39:53;96782.09;;;20.11;49.19
55263;BME280;41125;48.752;9.168;2023-06-26T02:40:25;96776.59;;;20.11;48.85
55263;BME280;41125;48.752;9.168;2023-06-26T02:40:56;96776.59;;;20.11;48.95
55263;BME280;41125;48.752;9.168;2023-06-26T02:41:28;96781.31;;;20.10;49.02
55263;BME280;41125;48.752;9.168;2023-06-26T02:41:59;96777.78;;;20.10;49.11
55263;BME280;41125;48.752;9.168;2023-06-26T02:42:33;96778.19;;;20.12;48.71
55263;BME280;41125;48.752;9.168;2023-06-26T02:43:04;96781.31;;;20.10;48.53
55263;BME280;41125;48.752;9.168;2023-06-26T02:43:36;96776.59;;;20.11;48.92
55263;BME280;41125;48.752;9.168;2023-06-26T02:44:08;96778.19;;;20.12;49.08
55263;BME280;41125;48.752;9.168;2023-06-26T02:44:39;96775.03;;;20.10;48.67
55263;BME280;41125;48.752;9.168;2023-06-26T02:45:12;96780.53;;;20.10;48.87
55263;BME280;41125;48.752;9.168;2023-06-26T02:45:43;96778.94;;;20.08;48.77
55263;BME280;41125;48.752;9.168;2023-06-26T02:46:15;96783.63;;;20.08;48.76
55263;BME280;41125;48.752;9.168;2023-06-26T02:46:46;96775.03;;;20.10;48.71
55263;BME280;41125;48.752;9.168;2023-06-26T02:47:18;96778.94;;;20.08;49.19
55263;BME280;41125;48.752;9.168;2023-06-26T02:47:49;96772.62;;;20.08;49.03
55263;BME280;41125;48.752;9.168;2023-06-26T02:48:20;96782.84;;;20.07;49.40
55263;BME280;41125;48.752;9.168;2023-06-26T02:48:52;96775.72;;;20.06;48.82
55263;BME280;41125;48.752;9.168;2023-06-26T02:49:23;96770.22;;;20.06;48.84
55263;BME280;41125;48.752;9.168;2023-06-26T02:49:55;96776.53;;;20.07;48.96
55263;BME280;41125;48.752;9.168;2023-06-26T02:50:26;96771.81;;;20.07;49.16
55263;BME280;41125;48.752;9.168;2023-06-26T02:50:57;96773.41;;;20.08;49.51
55263;BME280;41125;48.752;9.168;2023-06-26T02:51:28;96777.34;;;20.07;48.97
55263;BME280;41125;48.752;9.168;2023-06-26T02:52:00;96776.53;;;20.07;49.77
55263;BME280;41125;48.752;9.168;2023-06-26T02:52:31;96782.41;;;20.05;49.49
55263;BME280;41125;48.752;9.168;2023-06-26T02:53:02;96774.12;;;20.05;49.22
55263;BME280;41125;48.752;9.168;2023-06-26T02:53:33;96774.12;;;20.05;49.08
55263;BME280;41125;48.752;9.168;2023-06-26T02:54:05;96783.56;;;20.04;49.33
55263;BME280;41125;48.752;9.168;2023-06-26T02:54:36;96780.78;;;20.04;49.06
55263;BME280;41125;48.752;9.168;2023-06-26T02:55:08;96775.28;;;20.04;49.41
55263;BME280;41125;48.752;9.168;2023-06-26T02:55:39;96778.03;;;20.04;49.01
55263;BME280;41125;48.752;9.168;2023-06-26T02:56:10;96776.53;;;20.07;49.50
55263;BME280;41125;48.752;9.168;2023-06-26T02:56:41;96778.94;;;20.08;49.40
55263;BME280;41125;48.752;9.168;2023-06-26T02:57:13;96772.97;;;20.06;49.46
55263;BME280;41125;48.752;9.168;2023-06-26T02:57:45;96782.41;;;20.05;49.70
55263;BME280;41125;48.752;9.168;2023-06-26T02:58:17;96771.75;;;20.04;49.54
55263;BME280;41125;48.752;9.168;2023-06-26T02:58:48;96773.25;;;20.01;50.02
55263;BME280;41125;48.752;9.168;2023-06-26T02:59:19;96782.66;;;20.00;49.67